Time;durP1;ratioP1;P1;durP2;ratioP2;P2;SDS_P1;SDS_P2;PMS_P1;PMS_P2;Temp;Humidity;BMP_temperature;BMP_pressure;BME280_temperature;BME280_humidity;BME280_pressure;Samples;Min_cycle;Max_cycle;Signal;HPM_P1;HPM_P2
2021/08/30 00:00:31;;;;;;;14.52;7.63;;;19.90;91.30;;;;;;4209972;28;20036;-61
2021/08/30 00:02:53;;;;;;;12.90;7.97;;;19.90;91.50;;;;;;4210115;28;20498;-61
2021/08/30 00:05:16;;;;;;;9.60;7.32;;;19.90;91.80;;;;;;4210070;28;20055;-61
2021/08/30 00:07:39;;;;;;;14.30;8.13;;;19.90;91.60;;;;;;4210104;28;20072;-60
2021/08/30 00:10:01;;;;;;;12.48;8.05;;;19.90;91.50;;;;;;4209926;28;20155;-61
2021/08/30 00:12:23;;;;;;;9.23;8.20;;;19.90;91.60;;;;;;4210205;28;20490;-60
2021/08/30 00:14:46;;;;;;;9.73;6.75;;;19.90;91.60;;;;;;4209498;28;20162;-61
2021/08/30 00:17:08;;;;;;;10.25;7.82;;;19.90;91.70;;;;;;4209584;28;20051;-60
2021/08/30 00:19:33;;;;;;;13.43;8.10;;;19.90;91.50;;;;;;4210107;28;20076;-60
2021/08/30 00:21:54;;;;;;;12.65;8.70;;;19.90;91.50;;;;;;4176415;28;20044;-60
2021/08/30 00:24:22;;;;;;;10.05;7.85;;;19.90;91.60;;;;;;4176702;28;20049;-59
2021/08/30 00:26:44;;;;;;;8.73;7.68;;;19.90;91.70;;;;;;4200872;28;20060;-60
2021/08/30 00:29:07;;;;;;;13.05;8.32;;;19.90;91.70;;;;;;4207793;28;20063;-60
2021/08/30 00:31:29;;;;;;;12.10;7.82;;;19.90;91.70;;;;;;4209719;28;20048;-61
2021/08/30 00:33:51;;;;;;;12.05;7.85;;;19.90;91.80;;;;;;4208879;28;20040;-60
2021/08/30 00:36:13;;;;;;;12.70;8.85;;;19.90;92.00;;;;;;4192090;28;20053;-59
2021/08/30 00:38:35;;;;;;;13.98;8.55;;;19.90;91.90;;;;;;4192841;28;20044;-60
2021/08/30 00:40:58;;;;;;;10.90;7.70;;;19.90;91.80;;;;;;4192645;28;20378;-60
2021/08/30 00:43:20;;;;;;;11.07;8.40;;;19.90;92.00;;;;;;4192779;28;20771;-59
2021/08/30 00:45:42;;;;;;;10.63;8.07;;;19.90;92.20;;;;;;4192884;28;20471;-60
2021/08/30 00:48:05;;;;;;;14.68;7.95;;;19.90;91.90;;;;;;4192558;28;20395;-60
2021/08/30 00:50:27;;;;;;;13.98;8.60;;;20.00;92.10;;;;;;4176036;28;20495;-61
2021/08/30 00:52:51;;;;;;;10.75;7.53;;;19.90;92.10;;;;;;4176220;28;20041;-60
2021/08/30 00:55:16;;;;;;;13.07;7.72;;;19.90;92.20;;;;;;4178304;28;20128;-60
2021/08/30 00:57:39;;;;;;;13.38;8.30;;;19.90;92.30;;;;;;4176034;28;20074;-60
2021/08/30 01:00:01;;;;;;;10.30;7.72;;;19.90;92.20;;;;;;4177436;28;20761;-60
2021/08/30 01:02:24;;;;;;;16.15;8.35;;;19.90;92.40;;;;;;4191860;28;20052;-61
2021/08/30 01:04:47;;;;;;;12.82;8.20;;;19.90;92.10;;;;;;4192642;28;20483;-60
2021/08/30 01:07:17;;;;;;;13.35;8.20;;;19.90;92.60;;;;;;4192304;28;20476;-60
2021/08/30 01:09:45;;;;;;;13.33;7.30;;;19.90;92.50;;;;;;4192025;28;20052;-60
2021/08/30 01:12:10;;;;;;;13.73;8.50;;;19.90;92.30;;;;;;4175541;28;20116;-60
2021/08/30 01:14:40;;;;;;;10.50;8.27;;;19.90;92.60;;;;;;4191453;28;20531;-60
2021/08/30 01:17:05;;;;;;;11.20;7.47;;;19.90;92.60;;;;;;4192142;28;20135;-61
2021/08/30 01:19:34;;;;;;;14.65;7.50;;;19.90;92.40;;;;;;4192145;28;20122;-59
2021/08/30 01:21:57;;;;;;;10.27;7.72;;;19.90;92.50;;;;;;4191820;28;20483;-61
2021/08/30 01:24:21;;;;;;;12.52;8.20;;;19.90;92.20;;;;;;4182957;28;20522;-61
2021/08/30 01:26:48;;;;;;;13.85;7.93;;;19.90;92.50;;;;;;4192470;28;20049;-60
2021/08/30 01:29:17;;;;;;;10.65;7.65;;;19.90;92.80;;;;;;4191263;28;20099;-60
2021/08/30 01:31:48;;;;;;;12.88;8.02;;;19.90;92.70;;;;;;4191929;28;20048;-61
2021/08/30 01:34:11;;;;;;;10.80;7.67;;;19.90;92.60;;;;;;4191661;28;20045;-61
2021/08/30 01:36:36;;;;;;;12.32;8.50;;;19.90;92.40;;;;;;4192154;28;20067;-61
2021/08/30 01:38:59;;;;;;;8.50;7.05;;;19.90;92.80;;;;;;4184449;28;20483;-61
2021/08/30 01:41:21;;;;;;;13.95;8.27;;;19.90;92.90;;;;;;4191537;28;20071;-61
2021/08/30 01:43:45;;;;;;;11.27;8.10;;;19.90;92.50;;;;;;4201357;28;20060;-60
2021/08/30 01:46:08;;;;;;;14.18;8.02;;;19.90;92.50;;;;;;4208552;28;20134;-61
2021/08/30 01:48:30;;;;;;;14.93;8.27;;;19.90;92.50;;;;;;4198723;28;20043;-61
2021/08/30 01:50:54;;;;;;;13.18;8.68;;;19.90;92.40;;;;;;4204702;28;20092;-61
2021/08/30 01:53:16;;;;;;;14.00;8.43;;;19.90;92.70;;;;;;4208358;28;20679;-61
2021/08/30 01:55:43;;;;;;;11.43;8.10;;;19.90;92.60;;;;;;4199330;28;20104;-61
2021/08/30 02:00:50;;;;;;;12.85;8.45;;;19.90;92.60;;;;;;4208065;28;20498;-61
2021/08/30 02:03:13;;;;;;;14.82;8.95;;;19.90;92.80;;;;;;4206214;28;20458;-61
2021/08/30 02:05:36;;;;;;;14.30;9.27;;;19.90;92.40;;;;;;4207905;28;20135;-61
2021/08/30 02:08:00;;;;;;;15.32;8.07;;;19.90;92.80;;;;;;4200988;28;20056;-61
2021/08/30 02:10:22;;;;;;;11.20;7.68;;;19.90;92.60;;;;;;4190853;28;20052;-61
2021/08/30 02:12:46;;;;;;;11.32;7.97;;;19.90;92.50;;;;;;4193225;28;20391;-61
2021/08/30 02:15:09;;;;;;;15.20;8.48;;;19.90;92.30;;;;;;4201467;28;20059;-61
2021/08/30 02:17:34;;;;;;;14.30;8.07;;;19.90;92.40;;;;;;4191250;28;20060;-61
2021/08/30 02:20:01;;;;;;;14.57;8.38;;;19.90;92.50;;;;;;4196990;28;20546;-61
2021/08/30 02:22:29;;;;;;;12.93;8.15;;;19.90;92.50;;;;;;4207157;28;20070;-61
2021/08/30 02:24:55;;;;;;;11.80;8.48;;;19.90;92.60;;;;;;4208017;28;20494;-61
2021/08/30 02:27:24;;;;;;;13.18;9.10;;;19.90;92.60;;;;;;4204408;28;20063;-61
2021/08/30 02:29:49;;;;;;;13.63;8.85;;;19.90;92.50;;;;;;4178620;28;20052;-61
2021/08/30 02:32:12;;;;;;;13.57;8.57;;;19.90;92.50;;;;;;4207804;28;20211;-61
2021/08/30 02:34:36;;;;;;;14.40;8.18;;;19.90;92.40;;;;;;4207097;28;20056;-61
2021/08/30 02:37:00;;;;;;;11.38;8.70;;;19.90;92.40;;;;;;4202175;28;20044;-61
2021/08/30 02:39:23;;;;;;;12.50;8.65;;;19.90;92.50;;;;;;4183719;28;20044;-61
2021/08/30 02:41:49;;;;;;;13.57;8.32;;;19.90;92.40;;;;;;4191840;28;20044;-61
2021/08/30 02:44:12;;;;;;;12.55;7.78;;;19.90;92.90;;;;;;4191072;28;20153;-61
2021/08/30 02:46:35;;;;;;;14.75;9.00;;;19.90;92.40;;;;;;4191203;28;20136;-61
2021/08/30 02:48:59;;;;;;;12.63;8.40;;;19.90;92.40;;;;;;4190698;28;20040;-59
2021/08/30 02:51:23;;;;;;;9.57;8.40;;;19.90;92.40;;;;;;4191166;28;20048;-61
2021/08/30 02:53:47;;;;;;;11.35;8.32;;;19.90;92.50;;;;;;4190814;28;20110;-61
2021/08/30 02:56:09;;;;;;;10.27;8.48;;;20.00;92.50;;;;;;4195203;28;20509;-62
2021/08/30 02:58:34;;;;;;;10.88;7.78;;;19.90;92.40;;;;;;4207205;28;20040;-62
2021/08/30 03:00:57;;;;;;;11.80;8.35;;;19.90;92.50;;;;;;4207688;28;20040;-61
2021/08/30 03:03:21;;;;;;;13.23;9.18;;;19.90;92.40;;;;;;4207415;28;20067;-61
2021/08/30 03:05:44;;;;;;;13.35;8.50;;;19.90;92.50;;;;;;4201000;28;20044;-61
2021/08/30 03:08:07;;;;;;;14.43;9.07;;;19.90;92.50;;;;;;4207740;28;20083;-61
2021/08/30 03:10:30;;;;;;;12.48;8.30;;;19.90;92.50;;;;;;4200393;28;20094;-61
2021/08/30 03:12:54;;;;;;;13.57;9.68;;;19.90;92.50;;;;;;4191105;28;20492;-61
2021/08/30 03:15:23;;;;;;;11.45;8.57;;;19.90;92.50;;;;;;4190460;28;20040;-61
2021/08/30 03:17:46;;;;;;;13.18;8.32;;;19.90;92.60;;;;;;4190836;28;20122;-62
2021/08/30 03:20:10;;;;;;;14.10;8.43;;;19.90;92.50;;;;;;4191055;28;20048;-61
2021/08/30 03:22:33;;;;;;;11.60;8.75;;;19.90;92.50;;;;;;4190485;28;20052;-62
2021/08/30 03:24:58;;;;;;;13.73;8.35;;;19.90;92.40;;;;;;4200137;28;20044;-62
2021/08/30 03:27:21;;;;;;;14.32;8.27;;;19.90;92.50;;;;;;4207289;28;20043;-62
2021/08/30 03:29:45;;;;;;;12.57;8.65;;;19.90;92.50;;;;;;4190401;28;20128;-62
2021/08/30 03:32:10;;;;;;;12.02;8.93;;;19.90;92.50;;;;;;4190866;28;20121;-61
2021/08/30 03:34:34;;;;;;;9.75;8.73;;;19.90;92.50;;;;;;4198546;28;20043;-61
2021/08/30 03:36:56;;;;;;;9.77;8.38;;;19.90;92.50;;;;;;4210870;28;20616;-61
2021/08/30 03:39:19;;;;;;;9.90;8.90;;;19.90;92.50;;;;;;4199211;28;20101;-61
2021/08/30 03:41:42;;;;;;;13.85;9.38;;;19.90;92.50;;;;;;4193432;28;20475;-62
2021/08/30 03:44:09;;;;;;;9.43;8.13;;;19.90;92.80;;;;;;4208134;28;20133;-61
2021/08/30 03:46:32;;;;;;;13.57;9.00;;;19.90;92.30;;;;;;4210626;28;20052;-61
2021/08/30 03:48:56;;;;;;;9.40;8.45;;;19.90;92.40;;;;;;4210250;28;20413;-61
2021/08/30 03:51:18;;;;;;;9.57;8.50;;;19.90;92.40;;;;;;4210379;28;20048;-62
2021/08/30 03:53:42;;;;;;;12.65;8.63;;;19.90;92.30;;;;;;4194410;28;20044;-62
2021/08/30 03:56:06;;;;;;;12.63;8.80;;;19.90;92.40;;;;;;4181540;28;20342;-61
2021/08/30 03:58:30;;;;;;;10.02;8.30;;;19.90;92.30;;;;;;4193518;28;20049;-61
2021/08/30 04:00:53;;;;;;;12.25;8.63;;;19.90;92.30;;;;;;4193267;28;20044;-61
2021/08/30 04:03:17;;;;;;;15.07;9.02;;;19.90;92.30;;;;;;4193293;28;20043;-61
2021/08/30 04:05:41;;;;;;;11.13;8.77;;;19.90;92.30;;;;;;4193264;28;20098;-61
2021/08/30 04:08:06;;;;;;;12.93;8.48;;;19.90;92.30;;;;;;4176987;28;20514;-61
2021/08/30 04:10:30;;;;;;;10.77;8.65;;;19.90;92.20;;;;;;4176631;28;20076;-61
2021/08/30 04:12:53;;;;;;;9.77;8.32;;;19.90;92.30;;;;;;4182886;28;20715;-61
2021/08/30 04:15:15;;;;;;;11.73;7.75;;;19.90;92.20;;;;;;4207993;28;20102;-61
2021/08/30 04:17:40;;;;;;;10.70;7.68;;;19.90;92.20;;;;;;4210101;28;20066;-60
2021/08/30 04:20:02;;;;;;;11.23;7.93;;;19.90;92.20;;;;;;4207013;28;20064;-61
2021/08/30 04:22:25;;;;;;;14.23;8.80;;;19.90;92.30;;;;;;4207508;28;20185;-61
2021/08/30 04:24:48;;;;;;;9.77;8.10;;;19.90;92.40;;;;;;4192847;28;20074;-60
2021/08/30 04:27:10;;;;;;;13.07;8.63;;;19.90;92.40;;;;;;4193197;28;20045;-61
2021/08/30 04:29:33;;;;;;;10.43;8.35;;;19.90;92.30;;;;;;4192469;28;20060;-61
2021/08/30 04:31:56;;;;;;;10.63;8.23;;;19.90;92.30;;;;;;4192473;28;20059;-61
2021/08/30 04:34:22;;;;;;;13.68;9.63;;;19.90;92.20;;;;;;4197088;28;20044;-61
2021/08/30 04:36:44;;;;;;;9.88;8.07;;;19.90;92.40;;;;;;4192700;28;20050;-61
2021/08/30 04:39:07;;;;;;;13.70;9.23;;;19.90;92.30;;;;;;4192809;28;20067;-61
2021/08/30 04:41:30;;;;;;;14.40;9.45;;;19.90;92.30;;;;;;4193348;28;20218;-61
2021/08/30 04:43:52;;;;;;;10.98;9.10;;;19.90;92.30;;;;;;4204505;28;20490;-61
2021/08/30 04:46:15;;;;;;;13.43;9.27;;;19.90;92.30;;;;;;4175570;28;20106;-61
2021/08/30 04:48:37;;;;;;;12.23;8.63;;;19.90;92.30;;;;;;4176095;28;20099;-60
2021/08/30 04:50:59;;;;;;;13.10;9.25;;;19.90;92.60;;;;;;4175946;28;20110;-60
2021/08/30 04:53:21;;;;;;;11.25;8.20;;;19.90;92.40;;;;;;4181989;28;20395;-61
2021/08/30 04:55:45;;;;;;;10.38;8.80;;;19.90;92.60;;;;;;4209422;28;20048;-61
2021/08/30 04:58:11;;;;;;;10.10;8.15;;;19.90;92.50;;;;;;4185045;28;20486;-61
2021/08/30 05:00:33;;;;;;;12.35;8.95;;;19.90;92.60;;;;;;4192553;28;20056;-62
2021/08/30 05:02:55;;;;;;;10.20;9.10;;;19.90;92.70;;;;;;4192121;28;20048;-61
2021/08/30 05:05:17;;;;;;;9.57;8.32;;;19.90;92.70;;;;;;4192444;28;20055;-61
2021/08/30 05:07:40;;;;;;;11.90;9.48;;;19.90;93.10;;;;;;4192381;28;20052;-61
2021/08/30 05:10:02;;;;;;;10.90;8.57;;;19.90;92.80;;;;;;4192003;28;20080;-61
2021/08/30 05:12:27;;;;;;;10.55;8.57;;;19.90;92.70;;;;;;4208661;28;20052;-61
2021/08/30 05:14:49;;;;;;;10.85;8.63;;;19.90;92.60;;;;;;4190318;28;20143;-61
2021/08/30 05:17:11;;;;;;;9.73;8.00;;;19.90;92.90;;;;;;4191929;28;20045;-61
2021/08/30 05:19:33;;;;;;;10.93;8.65;;;19.90;92.60;;;;;;4192280;28;20097;-61
2021/08/30 05:21:55;;;;;;;11.20;7.82;;;19.90;93.00;;;;;;4191754;28;20045;-62
2021/08/30 05:24:17;;;;;;;13.93;8.48;;;19.90;92.80;;;;;;4193394;28;20471;-60
2021/08/30 05:26:39;;;;;;;9.45;8.55;;;19.90;93.00;;;;;;4208283;28;20127;-61
2021/08/30 05:29:03;;;;;;;10.40;8.70;;;19.90;93.10;;;;;;4208429;28;20055;-62
2021/08/30 05:31:26;;;;;;;8.80;7.90;;;20.00;93.20;;;;;;4205429;28;20051;-62
2021/08/30 05:33:47;;;;;;;8.88;8.02;;;20.00;93.10;;;;;;4191685;28;20044;-62
2021/08/30 05:36:09;;;;;;;9.00;8.10;;;20.00;93.10;;;;;;4191944;28;20052;-61
2021/08/30 05:38:32;;;;;;;9.13;8.13;;;20.00;93.00;;;;;;4194089;28;20118;-61
2021/08/30 05:40:54;;;;;;;8.77;7.80;;;19.90;93.20;;;;;;4208340;28;20036;-60
2021/08/30 05:43:16;;;;;;;9.02;8.10;;;20.00;93.20;;;;;;4192093;28;20048;-61
2021/08/30 05:45:40;;;;;;;8.48;7.50;;;20.00;93.10;;;;;;4190531;28;20049;-60
2021/08/30 05:48:02;;;;;;;8.45;7.50;;;20.00;93.20;;;;;;4192139;28;20162;-60
2021/08/30 05:50:24;;;;;;;8.23;7.45;;;20.00;93.40;;;;;;4192397;28;20474;-61
2021/08/30 05:52:46;;;;;;;13.18;7.97;;;20.00;93.30;;;;;;4201502;28;20055;-61
2021/08/30 05:55:09;;;;;;;11.82;7.65;;;20.00;93.40;;;;;;4192125;28;20048;-60
2021/08/30 05:57:31;;;;;;;7.97;7.18;;;20.00;93.30;;;;;;4196095;28;20059;-60
2021/08/30 05:59:53;;;;;;;8.60;7.70;;;20.00;93.40;;;;;;4208822;28;20131;-61
2021/08/30 06:02:16;;;;;;;10.93;7.90;;;20.00;93.60;;;;;;4203132;28;20131;-61
2021/08/30 06:04:38;;;;;;;9.25;7.53;;;20.00;93.70;;;;;;4191921;28;20071;-60
2021/08/30 06:07:00;;;;;;;7.22;6.25;;;20.00;93.50;;;;;;4191859;28;20143;-60
2021/08/30 06:09:22;;;;;;;8.43;7.60;;;20.00;93.60;;;;;;4194926;28;20452;-60
2021/08/30 06:11:47;;;;;;;10.15;8.00;;;20.00;93.80;;;;;;4207940;28;20055;-60
2021/08/30 06:14:09;;;;;;;9.25;7.65;;;20.00;93.80;;;;;;4185694;28;20048;-60
2021/08/30 06:16:31;;;;;;;9.98;7.53;;;20.00;93.90;;;;;;4199070;28;20132;-60
2021/08/30 06:18:54;;;;;;;7.93;6.90;;;19.90;93.90;;;;;;4207988;28;20643;-60
2021/08/30 06:21:17;;;;;;;9.20;8.25;;;20.00;94.10;;;;;;4207802;28;20414;-61
2021/08/30 06:23:38;;;;;;;10.52;7.72;;;19.90;94.10;;;;;;4175080;28;20044;-60
2021/08/30 06:26:01;;;;;;;11.07;8.07;;;20.00;94.10;;;;;;4175278;28;20122;-60
2021/08/30 06:28:23;;;;;;;12.02;8.15;;;20.00;94.10;;;;;;4203495;28;20498;-60
2021/08/30 06:30:44;;;;;;;8.93;7.80;;;20.00;94.10;;;;;;4201159;28;20055;-60
2021/08/30 06:33:06;;;;;;;8.23;7.43;;;20.00;94.30;;;;;;4203767;28;20497;-60
2021/08/30 06:35:30;;;;;;;9.40;7.60;;;20.00;94.30;;;;;;4207206;28;20044;-60
2021/08/30 06:37:52;;;;;;;12.65;8.52;;;20.00;94.30;;;;;;4207578;28;20173;-60
2021/08/30 06:40:15;;;;;;;8.63;7.38;;;20.00;94.40;;;;;;4207587;28;20093;-60
2021/08/30 06:42:38;;;;;;;8.65;7.60;;;20.00;94.30;;;;;;4199050;28;20049;-61
2021/08/30 06:44:59;;;;;;;8.70;7.80;;;20.00;94.30;;;;;;4201547;28;20093;-59
2021/08/30 06:47:22;;;;;;;9.85;8.45;;;20.00;94.20;;;;;;4202721;28;20505;-59
2021/08/30 06:49:44;;;;;;;8.80;7.75;;;20.00;94.30;;;;;;4207850;28;20047;-59
2021/08/30 06:52:08;;;;;;;8.50;7.70;;;20.00;94.30;;;;;;4201454;28;20078;-59
2021/08/30 06:54:30;;;;;;;9.30;7.80;;;20.00;94.20;;;;;;4207611;28;20119;-60
2021/08/30 06:56:52;;;;;;;10.27;8.00;;;20.00;94.60;;;;;;4206955;28;20090;-59
2021/08/30 06:59:14;;;;;;;8.60;7.57;;;20.00;94.40;;;;;;4207957;28;20561;-60
2021/08/30 07:01:36;;;;;;;9.23;7.95;;;20.00;94.10;;;;;;4207237;28;20048;-60
2021/08/30 07:04:01;;;;;;;11.35;7.88;;;20.00;94.10;;;;;;4206040;28;20502;-61
2021/08/30 07:06:23;;;;;;;7.68;6.88;;;20.00;94.20;;;;;;4190461;28;20514;-59
2021/08/30 07:08:46;;;;;;;9.10;8.05;;;20.00;94.10;;;;;;4192741;28;20040;-61
2021/08/30 07:11:08;;;;;;;9.23;7.70;;;20.00;94.00;;;;;;4194557;28;20131;-60
2021/08/30 07:13:30;;;;;;;8.40;7.45;;;20.00;94.20;;;;;;4193987;28;20828;-61
2021/08/30 07:15:52;;;;;;;8.95;7.95;;;20.00;94.10;;;;;;4194016;28;20491;-60
2021/08/30 07:18:15;;;;;;;8.10;7.30;;;20.00;94.20;;;;;;4200566;28;20140;-61
2021/08/30 07:20:37;;;;;;;10.98;8.20;;;20.00;94.20;;;;;;4203419;28;20053;-61
2021/08/30 07:23:00;;;;;;;10.52;7.65;;;20.10;94.30;;;;;;4194352;28;20052;-60
2021/08/30 07:25:23;;;;;;;8.85;7.40;;;20.10;94.30;;;;;;4193988;28;20561;-61
2021/08/30 07:27:45;;;;;;;10.80;7.38;;;20.10;94.30;;;;;;4198884;28;20047;-61
2021/08/30 07:30:08;;;;;;;8.50;7.43;;;20.10;94.20;;;;;;4207742;28;20047;-61
2021/08/30 07:32:31;;;;;;;8.48;7.50;;;20.10;94.10;;;;;;4210127;28;20056;-61
2021/08/30 07:34:53;;;;;;;8.68;6.57;;;20.20;93.90;;;;;;4210872;28;20121;-60
2021/08/30 07:37:15;;;;;;;9.23;7.30;;;20.20;93.90;;;;;;4209048;28;20051;-61
2021/08/30 07:39:37;;;;;;;8.27;6.28;;;20.20;93.90;;;;;;4177178;28;20064;-61
2021/08/30 07:42:00;;;;;;;9.90;6.75;;;20.20;93.80;;;;;;4182202;28;20049;-61
2021/08/30 07:44:24;;;;;;;7.97;6.22;;;20.20;93.80;;;;;;4193535;28;20060;-60
2021/08/30 07:46:46;;;;;;;7.35;6.10;;;20.30;93.80;;;;;;4193612;28;20055;-60
2021/08/30 07:49:10;;;;;;;8.02;6.18;;;20.30;93.70;;;;;;4203589;28;20067;-61
2021/08/30 07:51:33;;;;;;;7.00;6.32;;;20.30;93.60;;;;;;4199170;28;20175;-60
2021/08/30 07:53:57;;;;;;;8.13;6.28;;;20.30;93.50;;;;;;4200655;28;20048;-60
2021/08/30 07:56:19;;;;;;;7.28;6.57;;;20.30;93.40;;;;;;4193939;28;20498;-61
2021/08/30 07:58:43;;;;;;;6.57;5.93;;;20.40;93.30;;;;;;4192140;28;20040;-61
2021/08/30 08:01:05;;;;;;;6.55;5.80;;;20.40;93.20;;;;;;4206518;28;20131;-60
2021/08/30 08:03:27;;;;;;;7.82;6.05;;;20.40;93.00;;;;;;4196501;28;20102;-60
2021/08/30 08:05:49;;;;;;;6.05;5.45;;;20.40;92.90;;;;;;4193352;28;20055;-61
2021/08/30 08:08:12;;;;;;;6.07;5.47;;;20.50;92.80;;;;;;4192037;28;20140;-60
2021/08/30 08:10:34;;;;;;;6.63;5.82;;;20.40;92.70;;;;;;4193287;28;20510;-59
2021/08/30 08:12:56;;;;;;;5.55;5.18;;;20.50;92.80;;;;;;4194148;28;20040;-60
2021/08/30 08:15:20;;;;;;;5.72;5.10;;;20.50;92.90;;;;;;4202219;28;20043;-61
2021/08/30 08:17:42;;;;;;;7.55;5.70;;;20.50;92.80;;;;;;4209561;28;20553;-61
2021/08/30 08:20:06;;;;;;;6.43;5.20;;;20.50;92.80;;;;;;4208707;28;20044;-62
2021/08/30 08:22:35;;;;;;;9.02;5.20;;;20.50;92.50;;;;;;4209959;28;20052;-60
2021/08/30 08:24:58;;;;;;;7.82;4.80;;;20.60;92.40;;;;;;4198140;28;20445;-60
2021/08/30 08:27:20;;;;;;;5.35;4.93;;;20.60;92.10;;;;;;4205492;28;20405;-60
2021/08/30 08:29:42;;;;;;;6.05;4.65;;;20.60;91.90;;;;;;4209346;28;20077;-60
2021/08/30 08:32:07;;;;;;;5.30;4.80;;;20.60;91.70;;;;;;4209924;28;20568;-60
2021/08/30 08:34:29;;;;;;;5.25;4.75;;;20.60;91.30;;;;;;4209824;28;20425;-60
2021/08/30 08:36:51;;;;;;;7.88;4.70;;;20.60;91.10;;;;;;4209430;28;20098;-60
2021/08/30 08:39:13;;;;;;;4.10;3.83;;;20.60;91.10;;;;;;4195352;28;20051;-60
2021/08/30 08:41:36;;;;;;;4.28;3.97;;;20.60;91.10;;;;;;4196107;28;20128;-60
2021/08/30 08:43:58;;;;;;;4.72;4.18;;;20.60;91.00;;;;;;4207775;28;20055;-60
2021/08/30 08:46:20;;;;;;;4.45;4.15;;;20.70;90.80;;;;;;4197849;28;20067;-60
2021/08/30 08:48:44;;;;;;;4.00;3.70;;;20.70;90.60;;;;;;4208898;28;20422;-61
2021/08/30 08:51:06;;;;;;;4.65;4.35;;;20.70;90.50;;;;;;4209457;28;20135;-60
2021/08/30 08:53:28;;;;;;;3.85;3.55;;;20.80;90.30;;;;;;4192981;28;20139;-60
2021/08/30 08:55:52;;;;;;;4.03;3.72;;;20.80;90.00;;;;;;4202206;28;20490;-60
2021/08/30 08:58:16;;;;;;;4.10;3.80;;;20.80;90.00;;;;;;4176360;28;20087;-60
2021/08/30 09:00:42;;;;;;;4.35;3.95;;;20.80;89.40;;;;;;4175892;28;20040;-60
2021/08/30 09:03:04;;;;;;;4.18;3.95;;;20.90;89.30;;;;;;4175836;28;20149;-60
2021/08/30 09:05:29;;;;;;;4.43;3.97;;;21.00;88.60;;;;;;4190969;28;20063;-59
2021/08/30 09:07:52;;;;;;;5.05;4.60;;;21.00;88.20;;;;;;4192248;28;20198;-60
2021/08/30 09:10:16;;;;;;;4.25;3.95;;;21.10;87.50;;;;;;4192145;28;20053;-60
2021/08/30 09:12:39;;;;;;;3.55;3.25;;;21.10;87.80;;;;;;4192087;28;20126;-60
2021/08/30 09:15:11;;;;;;;4.28;3.88;;;21.10;87.60;;;;;;4192136;28;20133;-60
2021/08/30 09:17:34;;;;;;;3.63;3.40;;;21.10;87.40;;;;;;4185992;28;20105;-60
2021/08/30 09:19:56;;;;;;;3.38;3.00;;;21.10;87.80;;;;;;4206117;28;20563;-60
2021/08/30 09:22:29;;;;;;;3.70;3.50;;;21.20;88.00;;;;;;4179204;28;20087;-60
2021/08/30 09:24:51;;;;;;;3.28;3.03;;;21.20;86.30;;;;;;4195600;28;20108;-60
2021/08/30 09:27:13;;;;;;;3.78;3.47;;;21.20;85.90;;;;;;4201274;28;20076;-60
2021/08/30 09:29:37;;;;;;;3.75;3.45;;;21.20;85.60;;;;;;4191794;28;20522;-60
2021/08/30 09:32:02;;;;;;;3.38;3.17;;;21.20;85.80;;;;;;4191232;28;20067;-62
2021/08/30 09:34:29;;;;;;;4.80;3.55;;;21.20;85.60;;;;;;4179025;28;20048;-62
2021/08/30 09:36:53;;;;;;;3.45;3.20;;;21.20;84.00;;;;;;4191543;28;20526;-63
2021/08/30 09:39:17;;;;;;;3.45;3.25;;;21.20;84.40;;;;;;4204990;28;20056;-62
2021/08/30 09:41:43;;;;;;;4.00;3.60;;;21.20;85.30;;;;;;4206703;28;20071;-61
2021/08/30 09:44:06;;;;;;;4.05;3.75;;;21.20;84.00;;;;;;4208580;28;20052;-60
2021/08/30 09:46:30;;;;;;;4.40;4.00;;;21.20;83.80;;;;;;4184685;28;20048;-62
2021/08/30 09:48:53;;;;;;;4.07;3.78;;;21.30;84.40;;;;;;4182605;28;20548;-60
2021/08/30 09:51:16;;;;;;;4.32;3.15;;;21.30;85.10;;;;;;4190041;28;20049;-63
2021/08/30 09:53:39;;;;;;;3.78;3.30;;;21.30;84.80;;;;;;4191639;28;20052;-61
2021/08/30 09:56:03;;;;;;;4.30;3.33;;;21.30;84.10;;;;;;4191731;28;20057;-64
2021/08/30 09:58:27;;;;;;;3.90;3.67;;;21.30;83.50;;;;;;4175200;28;20555;-64
2021/08/30 10:00:52;;;;;;;4.70;3.67;;;21.20;83.50;;;;;;4175085;28;20099;-63
2021/08/30 10:03:17;;;;;;;3.25;3.03;;;21.20;83.60;;;;;;4174955;28;20419;-64
2021/08/30 10:05:39;;;;;;;3.90;3.53;;;21.30;83.90;;;;;;4175051;28;20579;-64
2021/08/30 10:08:02;;;;;;;4.28;3.85;;;21.30;84.10;;;;;;4191813;28;20499;-62
2021/08/30 10:10:25;;;;;;;4.85;4.45;;;21.30;84.40;;;;;;4191459;28;20496;-63
2021/08/30 10:12:49;;;;;;;6.47;4.03;;;21.30;84.80;;;;;;4190299;28;20470;-61
2021/08/30 10:15:13;;;;;;;3.72;3.42;;;21.40;84.40;;;;;;4191025;28;20723;-61
2021/08/30 10:17:35;;;;;;;3.55;3.25;;;21.40;84.10;;;;;;4191462;28;20110;-62
2021/08/30 10:20:00;;;;;;;4.03;3.67;;;21.40;83.40;;;;;;4190226;28;20565;-62
2021/08/30 10:22:23;;;;;;;5.22;3.55;;;21.40;83.80;;;;;;4174610;28;20156;-61
2021/08/30 10:24:46;;;;;;;4.03;3.72;;;21.40;84.40;;;;;;4158057;28;20562;-61
2021/08/30 10:27:10;;;;;;;3.53;3.17;;;21.40;84.10;;;;;;4168525;28;20098;-61
2021/08/30 10:29:35;;;;;;;4.53;3.80;;;21.40;84.40;;;;;;4186578;28;20056;-61
2021/08/30 10:31:57;;;;;;;3.75;3.53;;;21.40;85.20;;;;;;4178080;28;20419;-61
2021/08/30 10:34:26;;;;;;;4.53;4.13;;;21.50;85.50;;;;;;4174244;28;20037;-62
2021/08/30 10:36:48;;;;;;;3.65;3.35;;;21.50;85.30;;;;;;4175426;28;20048;-61
2021/08/30 10:39:10;;;;;;;3.80;3.60;;;21.50;85.00;;;;;;4174721;28;20120;-62
2021/08/30 10:41:36;;;;;;;4.53;4.13;;;21.50;85.30;;;;;;4174713;28;20056;-62
2021/08/30 10:44:07;;;;;;;4.50;3.88;;;21.50;85.80;;;;;;4173989;28;20049;-61
2021/08/30 10:46:41;;;;;;;4.88;3.72;;;21.50;84.20;;;;;;4174476;28;20064;-63
2021/08/30 10:49:10;;;;;;;3.90;3.58;;;21.50;85.00;;;;;;4174892;28;20052;-63
2021/08/30 10:51:34;;;;;;;3.47;3.28;;;21.50;84.20;;;;;;4157767;28;20132;-64
2021/08/30 10:53:57;;;;;;;3.28;3.08;;;21.50;83.20;;;;;;4174258;28;20041;-63
2021/08/30 10:56:24;;;;;;;4.38;3.03;;;21.50;82.40;;;;;;4178988;28;20498;-63
2021/08/30 10:58:50;;;;;;;3.40;3.17;;;21.50;80.90;;;;;;4174030;28;20060;-63
2021/08/30 11:01:14;;;;;;;3.45;3.25;;;21.50;80.70;;;;;;4174575;28;20049;-62
2021/08/30 11:03:39;;;;;;;3.30;3.10;;;21.50;79.60;;;;;;4191693;28;20052;-63
2021/08/30 11:06:06;;;;;;;3.50;3.20;;;21.60;79.50;;;;;;4207247;28;20133;-63
2021/08/30 11:08:28;;;;;;;5.28;3.50;;;21.50;79.70;;;;;;4207624;28;20509;-63
2021/08/30 11:10:50;;;;;;;3.38;3.17;;;21.50;80.30;;;;;;4175375;28;20480;-63
2021/08/30 11:13:12;;;;;;;3.50;3.28;;;21.60;81.10;;;;;;4179186;28;20059;-64
2021/08/30 11:15:34;;;;;;;3.22;3.03;;;21.60;81.10;;;;;;4174550;28;20110;-64
2021/08/30 11:17:59;;;;;;;3.40;3.00;;;21.60;81.40;;;;;;4174341;28;20045;-63
2021/08/30 11:20:22;;;;;;;3.80;3.50;;;21.60;81.00;;;;;;4174012;28;20056;-64
2021/08/30 11:22:52;;;;;;;3.95;3.53;;;21.70;81.20;;;;;;4179049;28;20076;-62
2021/08/30 11:25:14;;;;;;;3.25;3.15;;;21.70;80.60;;;;;;4206988;28;20410;-61
2021/08/30 11:27:36;;;;;;;3.50;3.30;;;21.70;80.40;;;;;;4194942;28;20490;-62
2021/08/30 11:30:00;;;;;;;3.45;3.22;;;21.70;79.90;;;;;;4183335;28;20450;-62
2021/08/30 11:32:25;;;;;;;3.67;3.40;;;21.80;79.60;;;;;;4174279;28;20067;-62
2021/08/30 11:34:48;;;;;;;4.35;3.60;;;21.80;80.00;;;;;;4174050;28;20393;-62
2021/08/30 11:37:15;;;;;;;3.80;3.60;;;21.80;80.10;;;;;;4174254;28;20662;-62
2021/08/30 11:39:40;;;;;;;4.32;4.03;;;21.80;80.30;;;;;;4174129;28;20072;-62
2021/08/30 11:42:05;;;;;;;3.72;3.53;;;21.80;80.00;;;;;;4186976;28;20053;-62
2021/08/30 11:44:29;;;;;;;3.78;3.58;;;21.90;80.30;;;;;;4190701;28;20697;-62
2021/08/30 11:46:55;;;;;;;4.68;3.90;;;21.80;80.20;;;;;;4190625;28;20059;-61
2021/08/30 11:49:18;;;;;;;5.00;4.15;;;21.80;81.00;;;;;;4173659;28;20410;-61
2021/08/30 11:51:41;;;;;;;4.75;4.20;;;21.80;81.40;;;;;;4174053;28;20041;-61
2021/08/30 11:54:04;;;;;;;4.05;3.85;;;21.90;81.50;;;;;;4174527;28;20211;-61
2021/08/30 11:56:28;;;;;;;4.35;4.05;;;21.90;81.70;;;;;;4185547;28;20052;-62
2021/08/30 11:58:50;;;;;;;4.07;3.55;;;21.90;81.40;;;;;;4195381;28;20052;-61
2021/08/30 12:01:18;;;;;;;4.03;3.78;;;21.90;81.60;;;;;;4203655;28;20052;-61
2021/08/30 12:03:42;;;;;;;4.47;4.05;;;21.80;81.50;;;;;;4210628;28;20127;-60
2021/08/30 12:06:14;;;;;;;4.30;4.00;;;21.90;81.50;;;;;;4176791;28;20786;-60
2021/08/30 12:08:47;;;;;;;4.13;3.83;;;21.90;82.00;;;;;;4185889;28;20048;-60
2021/08/30 12:11:13;;;;;;;3.97;3.72;;;21.90;81.40;;;;;;4209700;28;20051;-60
2021/08/30 12:13:44;;;;;;;4.15;3.85;;;21.90;81.80;;;;;;4209828;28;20044;-60
2021/08/30 12:16:07;;;;;;;4.90;4.47;;;21.80;81.90;;;;;;4210083;28;20059;-59
2021/08/30 12:18:29;;;;;;;4.70;4.32;;;21.90;82.50;;;;;;4176615;28;21873;-61
2021/08/30 12:20:58;;;;;;;4.55;4.25;;;21.80;82.20;;;;;;4178378;28;20417;-62
2021/08/30 12:23:21;;;;;;;5.10;4.60;;;21.90;82.30;;;;;;4188676;28;20048;-61
2021/08/30 12:25:46;;;;;;;7.15;4.80;;;21.90;82.50;;;;;;4193038;28;20109;-61